KCBM/CBM METAR and TAF weather

Enter ICAO airport designator
Station Type Date Time Source
KCBM METAR 2022/01/26 19:13 UTC NOAA

KCBM 261913Z 01009G18KT 10SM CLR 07/M12 A3032 RMK SLP271 $


Station Type Date Time Source
KCBM Decoded METAR 2022/01/26 19:13 UTC NOAA

Columbus Air Force Base, MS, United States (KCBM) 33-39N 088-27W
Jan 26, 2022 - 02:13 PM EST / 2022.01.26 1913 UTC
Wind: from the N (010 degrees) at 10 MPH (9 KT) gusting to 21 MPH (18 KT):0
Visibility: 10 mile(s):0
Sky conditions: clear
Temperature: 44 F (7 C)
Dew Point: 10 F (-12 C)
Relative Humidity: 24%
Pressure (altimeter): 30.32 in. Hg (1026 hPa)
ob: KCBM 261913Z 01009G18KT 10SM CLR 07/M12 A3032 RMK SLP271
cycle: 19

Station Type Date Time Source
KCBM TAF 2022/01/26 17:54 UTC NOAA

TAF TAF KCBM 261700Z 2617/2723 01010G15KT 9999 SKC QNH3027INS
BECMG 2621/2622 01009KT 9999 SKC QNH3027INS
BECMG 2711/2712 VRB04KT 9999 BKN100 QNH3028INS TX07/2621Z TNM02/2711Z

Example: see airport list